Time;durP1;ratioP1;P1;durP2;ratioP2;P2;SDS_P1;SDS_P2;PMS_P1;PMS_P2;Temp;Humidity;BMP_temperature;BMP_pressure;BME280_temperature;BME280_humidity;BME280_pressure;Samples;Min_cycle;Max_cycle;Signal;HPM_P1;HPM_P2
2023/05/11 00:00:38;;;;;;;7.32;2.92;;;;;;;15.45;53.76;100439.47;5092674;28;20058;-68
2023/05/11 00:03:05;;;;;;;4.45;3.50;;;;;;;15.24;53.52;100401.16;5093202;28;20126;-68
2023/05/11 00:05:30;;;;;;;4.68;3.20;;;;;;;15.35;53.63;100426.03;5111202;28;20026;-68
2023/05/11 00:07:55;;;;;;;4.63;2.63;;;;;;;15.35;53.80;100430.63;5111178;28;20040;-68
2023/05/11 00:10:21;;;;;;;4.25;3.20;;;;;;;15.28;53.80;100427.72;5111343;28;20030;-68
2023/05/11 00:12:47;;;;;;;5.55;3.00;;;;;;;15.24;53.89;100425.50;5110762;28;20647;-68
2023/05/11 00:15:12;;;;;;;4.10;2.90;;;;;;;15.17;54.20;100424.44;5110545;28;20159;-68
2023/05/11 00:17:37;;;;;;;5.65;3.25;;;;;;;15.15;54.12;100432.72;5091952;28;20548;-68
2023/05/11 00:20:04;;;;;;;5.13;3.00;;;;;;;15.05;54.44;100415.78;5111348;28;20112;-68
2023/05/11 00:22:29;;;;;;;3.92;3.08;;;;;;;15.01;54.66;100416.25;5097459;28;20049;-68
2023/05/11 00:24:54;;;;;;;4.63;2.92;;;;;;;15.05;54.36;100421.19;5107877;28;20044;-68
2023/05/11 00:27:20;;;;;;;4.35;3.22;;;;;;;14.95;54.47;100416.91;5093052;28;20468;-68
2023/05/11 00:29:45;;;;;;;3.85;3.08;;;;;;;14.96;54.90;100418.59;5109041;28;20414;-68
2023/05/11 00:32:11;;;;;;;6.07;3.50;;;;;;;14.95;55.15;100430.41;5110708;28;20417;-68
2023/05/11 00:34:36;;;;;;;5.30;3.30;;;;;;;14.90;55.45;100416.53;5110382;28;20049;-68
2023/05/11 00:37:03;;;;;;;9.20;3.42;;;;;;;14.76;55.49;100401.75;5110975;28;20627;-68
2023/05/11 00:39:28;;;;;;;4.40;3.13;;;;;;;14.75;55.94;100416.28;5110741;28;20031;-68
2023/05/11 00:41:53;;;;;;;6.53;3.88;;;;;;;14.72;56.29;100415.75;5110124;28;20033;-68
2023/05/11 00:44:19;;;;;;;4.43;3.60;;;;;;;14.70;56.35;100418.59;5110723;28;20524;-68
2023/05/11 00:46:44;;;;;;;8.10;3.80;;;;;;;14.66;56.40;100419.94;5091723;28;20027;-68
2023/05/11 00:49:10;;;;;;;4.10;3.17;;;;;;;14.65;56.55;100420.09;5110307;28;20023;-68
2023/05/11 00:51:37;;;;;;;4.30;3.40;;;;;;;14.55;56.85;100417.50;5110193;28;20126;-68
2023/05/11 00:54:02;;;;;;;5.57;3.38;;;;;;;14.56;56.96;100421.03;5110141;28;20027;-67
2023/05/11 00:56:28;;;;;;;6.82;3.30;;;;;;;14.52;57.44;100422.34;5110048;28;20038;-68
2023/05/11 00:58:54;;;;;;;8.93;3.88;;;;;;;14.38;57.62;100415.66;5110034;28;20025;-68
2023/05/11 01:01:19;;;;;;;5.85;3.55;;;;;;;14.41;57.73;100423.44;5110198;28;20019;-68
2023/05/11 01:03:46;;;;;;;6.78;3.58;;;;;;;14.34;57.93;100419.69;5109684;28;20126;-68
2023/05/11 01:06:31;;;;;;;9.60;4.00;;;;;;;14.34;58.27;100426.91;5092138;28;20479;-68
2023/05/11 01:09:09;;;;;;;5.45;3.72;;;;;;;14.30;58.28;100421.00;5124756;27;20050;-68
2023/05/11 01:11:47;;;;;;;7.28;3.63;;;;;;;14.27;58.83;100420.44;5110048;28;20023;-68
2023/05/11 01:14:25;;;;;;;5.68;3.10;;;;;;;14.18;58.77;100424.91;5108351;28;20023;-68
2023/05/11 01:16:55;;;;;;;7.80;3.42;;;;;;;14.13;59.06;100416.44;5093677;28;20043;-68
2023/05/11 01:19:28;;;;;;;5.15;3.97;;;;;;;14.09;59.39;100415.03;5109822;28;20111;-67
2023/05/11 01:21:54;;;;;;;8.30;3.72;;;;;;;13.94;59.16;100391.47;5109768;28;20024;-68
2023/05/11 01:24:22;;;;;;;6.18;3.45;;;;;;;14.04;59.41;100416.50;5109683;28;20046;-67
2023/05/11 01:27:20;;;;;;;4.70;3.47;;;;;;;13.99;60.00;100419.66;5091920;28;20637;-68
2023/05/11 01:30:24;;;;;;;6.07;3.45;;;;;;;13.93;59.72;100419.44;5108871;28;20088;-68
2023/05/11 01:32:53;;;;;;;5.15;3.50;;;;;;;13.85;60.48;100411.25;5050630;28;20036;-68
2023/05/11 01:35:21;;;;;;;4.22;3.17;;;;;;;13.82;60.91;100412.41;5088915;28;20051;-68
2023/05/11 01:37:50;;;;;;;6.18;3.08;;;;;;;13.62;61.33;100395.53;5109073;28;20047;-68
2023/05/11 01:40:20;;;;;;;3.70;3.15;;;;;;;13.62;61.39;100406.31;5091516;28;20034;-67
2023/05/11 01:42:57;;;;;;;5.75;3.42;;;;;;;13.69;60.96;100417.31;5090826;28;20440;-68
2023/05/11 01:45:25;;;;;;;3.78;3.30;;;;;;;13.56;61.45;100408.75;5108971;28;20019;-67
2023/05/11 01:47:54;;;;;;;5.22;3.47;;;;;;;13.59;61.58;100420.09;5090709;28;20034;-68
2023/05/11 01:50:21;;;;;;;4.43;3.55;;;;;;;13.47;61.31;100399.75;5109246;28;20027;-68
2023/05/11 01:52:49;;;;;;;5.72;3.55;;;;;;;13.56;61.49;100428.47;5108978;28;20084;-67
2023/05/11 01:55:18;;;;;;;4.95;2.90;;;;;;;13.53;61.58;100417.16;5091106;28;20122;-68
2023/05/11 01:57:44;;;;;;;5.28;3.30;;;;;;;13.52;62.02;100413.59;5108537;28;20043;-68
2023/05/11 02:00:10;;;;;;;3.88;3.03;;;;;;;13.43;61.98;100400.19;5109182;28;20016;-68
2023/05/11 02:02:37;;;;;;;8.45;3.42;;;;;;;13.40;61.79;100387.88;5090790;28;20491;-67
2023/05/11 02:05:05;;;;;;;5.30;3.75;;;;;;;13.50;62.42;100412.06;5109466;28;20007;-67
2023/05/11 02:07:33;;;;;;;6.38;3.40;;;;;;;13.44;61.79;100404.56;5108160;28;20426;-68
2023/05/11 02:10:00;;;;;;;6.32;3.60;;;;;;;13.46;61.95;100408.84;5106355;28;20088;-67
2023/05/11 02:12:26;;;;;;;4.45;3.63;;;;;;;13.41;62.00;100400.34;5108522;28;22164;-67
2023/05/11 02:14:52;;;;;;;6.82;3.88;;;;;;;13.39;62.47;100401.50;5108542;28;20046;-68
2023/05/11 02:17:21;;;;;;;7.07;3.50;;;;;;;13.41;63.01;100416.50;5108758;28;20031;-68
2023/05/11 02:19:48;;;;;;;5.72;3.47;;;;;;;13.30;62.74;100399.69;5108321;28;20026;-67
2023/05/11 02:22:14;;;;;;;6.45;3.95;;;;;;;13.35;62.12;100403.63;5108925;28;20031;-67
2023/05/11 02:24:41;;;;;;;6.07;3.50;;;;;;;13.41;63.06;100412.94;5108080;28;20143;-68
2023/05/11 02:27:07;;;;;;;4.53;3.63;;;;;;;13.37;62.85;100411.56;5090390;28;20540;-67
2023/05/11 02:29:32;;;;;;;5.75;3.63;;;;;;;13.33;62.59;100410.19;5106234;28;20024;-68
2023/05/11 02:32:11;;;;;;;3.83;3.42;;;;;;;13.33;63.13;100410.19;5090768;28;20028;-67
2023/05/11 02:34:48;;;;;;;6.50;3.65;;;;;;;13.23;63.20;100404.00;5108578;28;20461;-68
2023/05/11 02:37:20;;;;;;;7.03;3.78;;;;;;;13.29;63.39;100414.19;5108516;28;20123;-67
2023/05/11 02:39:51;;;;;;;5.63;3.55;;;;;;;13.18;63.13;100395.50;5108319;28;20050;-68
2023/05/11 02:42:21;;;;;;;4.47;3.85;;;;;;;13.24;63.70;100403.84;5108075;28;20419;-67
2023/05/11 02:44:57;;;;;;;6.63;4.22;;;;;;;13.17;63.06;100401.88;5108006;28;20115;-68
2023/05/11 02:47:27;;;;;;;9.75;3.97;;;;;;;13.11;63.55;100399.78;5108134;28;20035;-67
2023/05/11 02:49:56;;;;;;;8.07;3.88;;;;;;;13.06;63.76;100394.84;5107735;28;20126;-67
2023/05/11 02:52:26;;;;;;;5.97;3.58;;;;;;;13.09;63.86;100408.00;5108089;28;20086;-68
2023/05/11 02:54:53;;;;;;;7.50;4.32;;;;;;;12.98;63.97;100399.25;5108017;28;20026;-67
2023/05/11 02:57:19;;;;;;;7.22;4.20;;;;;;;12.98;64.15;100393.88;5107737;28;20042;-68
2023/05/11 02:59:45;;;;;;;7.53;4.05;;;;;;;12.96;63.88;100407.47;5089136;28;20072;-68
2023/05/11 03:02:12;;;;;;;6.65;4.20;;;;;;;12.88;63.99;100398.44;5107437;28;20077;-68
2023/05/11 03:04:40;;;;;;;7.18;4.03;;;;;;;12.99;63.44;100411.75;5106861;28;20032;-68
2023/05/11 03:07:06;;;;;;;11.18;4.47;;;;;;;12.89;63.89;100392.91;5107268;28;20533;-68
2023/05/11 03:09:33;;;;;;;7.68;4.35;;;;;;;12.95;64.03;100404.94;5107113;28;20080;-68
2023/05/11 03:12:01;;;;;;;9.43;4.43;;;;;;;12.89;64.15;100406.38;5107341;28;20032;-68
2023/05/11 03:14:26;;;;;;;7.70;4.30;;;;;;;12.93;64.02;100401.56;5107156;28;20027;-68
2023/05/11 03:16:54;;;;;;;6.35;4.15;;;;;;;12.93;64.07;100406.94;5106915;28;20084;-68
2023/05/11 03:19:20;;;;;;;4.95;4.20;;;;;;;12.81;64.15;100390.13;5106616;28;20024;-68
2023/05/11 03:21:48;;;;;;;8.27;4.43;;;;;;;12.81;64.13;100384.75;5106748;28;20035;-68
2023/05/11 03:24:14;;;;;;;8.43;4.18;;;;;;;12.93;63.47;100406.94;5087471;28;20035;-68
2023/05/11 03:26:42;;;;;;;6.93;4.10;;;;;;;12.90;64.44;100409.91;5107024;28;20096;-68
2023/05/11 03:29:08;;;;;;;5.35;4.28;;;;;;;12.89;64.23;100409.06;5088471;28;21080;-68
2023/05/11 03:31:34;;;;;;;6.50;4.00;;;;;;;12.81;64.23;100392.81;5087429;28;20108;-69
2023/05/11 03:33:59;;;;;;;6.13;4.05;;;;;;;12.83;64.67;100414.19;5106523;28;20460;-69
2023/05/11 03:36:26;;;;;;;6.10;3.95;;;;;;;12.73;64.18;100389.13;5106122;28;20076;-69
2023/05/11 03:38:55;;;;;;;5.28;4.03;;;;;;;12.80;64.86;100414.50;5104399;28;20027;-69
2023/05/11 03:41:22;;;;;;;8.02;4.30;;;;;;;12.78;64.89;100413.78;5105754;28;20023;-68
2023/05/11 03:43:50;;;;;;;5.60;4.60;;;;;;;12.71;65.34;100415.38;5086145;28;20039;-69
2023/05/11 03:46:19;;;;;;;8.23;4.13;;;;;;;12.75;65.25;100416.75;5105562;28;20077;-69
2023/05/11 03:48:45;;;;;;;4.47;3.90;;;;;;;12.55;65.68;100390.91;5106170;28;20039;-69
2023/05/11 03:51:12;;;;;;;10.90;4.38;;;;;;;12.66;65.70;100426.56;5106087;28;20023;-68
2023/05/11 03:53:38;;;;;;;5.90;4.55;;;;;;;12.50;66.49;100394.03;5106117;28;20092;-69
2023/05/11 03:56:06;;;;;;;6.15;3.85;;;;;;;12.65;65.88;100413.25;5106472;28;20484;-69
2023/05/11 03:58:32;;;;;;;8.15;4.00;;;;;;;12.67;65.76;100414.78;5088171;28;20042;-69
2023/05/11 04:00:58;;;;;;;4.78;3.90;;;;;;;12.76;66.78;100424.69;5106413;28;20054;-69
2023/05/11 04:03:23;;;;;;;6.18;4.60;;;;;;;12.82;65.48;100423.25;5106735;28;20055;-69
2023/05/11 04:05:49;;;;;;;6.47;4.88;;;;;;;12.86;65.62;100420.13;5106152;28;20066;-68
2023/05/11 04:08:15;;;;;;;8.82;4.72;;;;;;;12.99;65.18;100422.50;5106431;28;20254;-68
2023/05/11 04:10:40;;;;;;;8.07;5.15;;;;;;;13.03;65.24;100414.00;5106452;28;20027;-68
2023/05/11 04:13:06;;;;;;;6.85;4.65;;;;;;;13.06;63.67;100400.22;5087985;28;20024;-68
2023/05/11 04:15:31;;;;;;;9.70;4.45;;;;;;;13.26;63.66;100420.69;5106465;28;20032;-68
2023/05/11 04:17:57;;;;;;;10.68;4.30;;;;;;;13.38;62.67;100429.41;5105680;28;20130;-68
2023/05/11 04:20:22;;;;;;;6.68;4.32;;;;;;;13.37;62.61;100411.56;5106575;28;20598;-67
2023/05/11 04:22:48;;;;;;;5.95;3.70;;;;;;;13.57;61.40;100427.47;5106461;28;20035;-68
2023/05/11 04:25:13;;;;;;;6.20;4.40;;;;;;;13.64;60.90;100414.22;5106433;28;20043;-61
2023/05/11 04:27:39;;;;;;;5.72;4.47;;;;;;;13.90;60.62;100436.78;5102607;28;20055;-61
2023/05/11 04:30:05;;;;;;;7.63;4.40;;;;;;;13.80;59.16;100403.63;5100774;28;20137;-61
2023/05/11 04:32:31;;;;;;;5.88;4.40;;;;;;;14.19;58.86;100437.38;5109959;28;20505;-61
2023/05/11 04:34:56;;;;;;;7.47;3.88;;;;;;;14.35;58.41;100444.81;5110292;28;20262;-62
2023/05/11 04:37:21;;;;;;;7.88;4.25;;;;;;;14.50;58.19;100441.41;5096205;28;20024;-62
2023/05/11 04:39:47;;;;;;;4.22;3.65;;;;;;;14.66;56.90;100448.75;5109931;28;20479;-62
2023/05/11 04:42:12;;;;;;;6.43;3.92;;;;;;;14.70;55.89;100428.56;5109658;28;20023;-62
2023/05/11 04:44:38;;;;;;;9.20;4.55;;;;;;;14.89;55.53;100440.00;5097584;28;20139;-61
2023/05/11 04:47:03;;;;;;;7.95;4.43;;;;;;;14.84;55.83;100412.63;5109849;28;20080;-61
2023/05/11 04:49:29;;;;;;;4.82;3.95;;;;;;;15.10;54.94;100429.66;5091544;28;20099;-60
2023/05/11 04:51:54;;;;;;;5.18;3.75;;;;;;;15.10;54.27;100416.16;5108052;28;20249;-61
2023/05/11 04:54:20;;;;;;;5.47;3.88;;;;;;;15.27;54.38;100428.72;5109561;28;20027;-60
2023/05/11 04:56:45;;;;;;;5.05;3.63;;;;;;;15.35;53.84;100433.34;5109506;28;20057;-61
2023/05/11 04:59:11;;;;;;;8.75;4.10;;;;;;;15.39;53.54;100434.72;5109931;28;20027;-62
2023/05/11 05:01:36;;;;;;;7.18;4.15;;;;;;;15.27;53.39;100409.81;5109195;28;20087;-61
2023/05/11 05:04:02;;;;;;;8.68;3.78;;;;;;;15.49;53.36;100436.28;5109812;28;20136;-62
2023/05/11 05:06:27;;;;;;;4.80;4.07;;;;;;;15.52;52.53;100430.56;5109168;28;20482;-62
2023/05/11 05:08:53;;;;;;;6.40;4.20;;;;;;;15.62;52.52;100438.53;5109077;28;20031;-61
2023/05/11 05:11:18;;;;;;;6.50;3.80;;;;;;;15.65;52.39;100420.13;5090593;28;20024;-61
2023/05/11 05:13:43;;;;;;;5.13;3.78;;;;;;;15.87;52.01;100435.72;5108265;28;20038;-62
2023/05/11 05:16:09;;;;;;;6.88;4.30;;;;;;;15.91;52.15;100441.66;5108495;28;20072;-61
2023/05/11 05:18:35;;;;;;;5.65;3.30;;;;;;;15.96;51.74;100442.00;5108152;28;20036;-61
2023/05/11 05:21:01;;;;;;;8.90;3.50;;;;;;;15.98;51.54;100437.28;5108652;28;20365;-62
2023/05/11 05:23:26;;;;;;;5.43;3.63;;;;;;;16.03;51.85;100439.47;5108942;28;20585;-61
2023/05/11 05:25:52;;;;;;;7.15;3.42;;;;;;;16.07;52.03;100443.53;5108310;28;20078;-62
2023/05/11 05:28:17;;;;;;;9.25;3.63;;;;;;;16.18;51.52;100446.75;5108852;28;20034;-62
2023/05/11 05:30:43;;;;;;;5.47;3.72;;;;;;;16.30;51.51;100444.56;5107335;28;20122;-61
2023/05/11 05:33:08;;;;;;;6.85;3.65;;;;;;;16.45;50.37;100445.66;5108788;28;20122;-61
2023/05/11 05:35:33;;;;;;;5.30;3.65;;;;;;;16.56;50.75;100446.16;5090424;28;20023;-60
2023/05/11 05:37:59;;;;;;;5.13;3.50;;;;;;;16.67;50.31;100448.50;5108427;28;20028;-61
2023/05/11 05:40:24;;;;;;;9.48;3.95;;;;;;;16.82;49.91;100444.09;5108047;28;20028;-62
2023/05/11 05:42:50;;;;;;;7.53;3.35;;;;;;;16.94;48.95;100447.28;5107568;28;20019;-61
2023/05/11 05:45:16;;;;;;;4.55;2.95;;;;;;;17.08;48.24;100449.28;5107779;28;20023;-61
2023/05/11 05:47:41;;;;;;;6.35;3.60;;;;;;;17.07;48.16;100428.63;5108378;28;20526;-61
2023/05/11 05:50:07;;;;;;;4.97;3.00;;;;;;;17.28;47.87;100440.59;5108319;28;20034;-61
2023/05/11 05:52:32;;;;;;;9.77;3.40;;;;;;;17.36;47.59;100442.44;5089799;28;20023;-61
2023/05/11 05:54:58;;;;;;;8.60;3.08;;;;;;;17.41;47.82;100438.16;5108333;28;20028;-62
2023/05/11 05:57:23;;;;;;;3.40;2.85;;;;;;;17.61;46.67;100449.50;5107529;28;20047;-61
2023/05/11 05:59:49;;;;;;;9.75;3.08;;;;;;;17.74;46.00;100449.78;5095037;28;20063;-61
2023/05/11 06:02:15;;;;;;;3.90;2.85;;;;;;;17.86;45.39;100430.19;5102645;28;20026;-61
2023/05/11 06:04:40;;;;;;;9.70;2.85;;;;;;;18.10;44.98;100446.31;5104396;28;20518;-61
2023/05/11 06:07:06;;;;;;;6.30;2.60;;;;;;;18.23;45.04;100444.88;5097821;28;20042;-62
2023/05/11 06:09:32;;;;;;;4.22;2.83;;;;;;;18.31;44.56;100442.94;5104882;28;20069;-62
2023/05/11 06:11:57;;;;;;;5.40;2.60;;;;;;;18.39;44.63;100442.94;5098754;28;20479;-62
2023/05/11 06:14:22;;;;;;;8.85;2.42;;;;;;;18.55;44.30;100447.38;5108109;28;20034;-62
2023/05/11 06:16:48;;;;;;;7.03;2.75;;;;;;;18.68;44.17;100436.75;5102944;28;20110;-62
2023/05/11 06:19:14;;;;;;;4.13;2.75;;;;;;;18.88;42.95;100430.59;5107896;28;20028;-62
2023/05/11 06:21:44;;;;;;;4.20;2.85;;;;;;;18.97;42.56;100439.50;5105409;28;20023;-61
2023/05/11 06:24:09;;;;;;;8.07;2.80;;;;;;;18.96;42.63;100426.97;5104821;28;20685;-62
2023/05/11 06:26:35;;;;;;;3.25;2.60;;;;;;;19.20;42.07;100438.41;5105625;28;20035;-62
2023/05/11 06:29:00;;;;;;;7.35;2.67;;;;;;;19.25;42.43;100433.25;5107812;28;20096;-62
2023/05/11 06:31:26;;;;;;;3.65;2.63;;;;;;;19.25;42.05;100416.94;5085448;28;20869;-61
2023/05/11 06:33:52;;;;;;;2.97;2.38;;;;;;;19.47;41.91;100429.63;5103771;28;20118;-61
2023/05/11 06:36:17;;;;;;;7.47;2.55;;;;;;;19.56;41.27;100422.19;5103296;28;20034;-62
2023/05/11 06:38:43;;;;;;;4.45;2.13;;;;;;;19.74;41.11;100441.69;5103062;28;20114;-61
2023/05/11 06:41:10;;;;;;;6.07;2.35;;;;;;;19.86;40.97;100435.56;5103960;28;20028;-62
2023/05/11 06:43:36;;;;;;;11.70;3.15;;;;;;;19.75;41.55;100406.13;5102902;28;20024;-62
2023/05/11 06:46:02;;;;;;;5.28;2.22;;;;;;;20.00;41.09;100431.94;5105055;28;20060;-62
2023/05/11 06:48:28;;;;;;;3.67;2.70;;;;;;;20.15;40.62;100435.50;5107218;28;20499;-62
2023/05/11 06:50:57;;;;;;;5.65;2.25;;;;;;;20.13;40.69;100425.84;5105602;28;20102;-63
2023/05/11 06:53:22;;;;;;;4.18;2.50;;;;;;;20.35;40.53;100434.88;5106568;28;20069;-61
2023/05/11 06:55:48;;;;;;;4.20;1.90;;;;;;;20.38;40.20;100432.63;5107482;28;20031;-61
2023/05/11 06:58:13;;;;;;;3.97;2.28;;;;;;;20.46;39.57;100435.19;5101286;28;20035;-62
2023/05/11 07:00:39;;;;;;;4.38;2.25;;;;;;;20.57;39.59;100433.84;5088381;28;20028;-62
2023/05/11 07:03:05;;;;;;;4.97;2.50;;;;;;;20.57;39.81;100406.56;5107174;28;20461;-61
2023/05/11 07:05:31;;;;;;;3.25;2.53;;;;;;;20.63;39.83;100405.78;5103269;28;20034;-61
2023/05/11 07:07:56;;;;;;;5.78;2.35;;;;;;;20.80;39.85;100410.72;5105903;28;20102;-62
2023/05/11 07:10:22;;;;;;;5.68;2.10;;;;;;;20.97;39.59;100420.34;5106666;28;20482;-61
2023/05/11 07:12:48;;;;;;;5.57;2.20;;;;;;;21.06;39.45;100418.31;5104977;28;20025;-62
2023/05/11 07:15:13;;;;;;;6.32;2.00;;;;;;;21.18;39.10;100412.09;5098059;28;20536;-62
2023/05/11 07:17:39;;;;;;;3.08;2.10;;;;;;;21.23;39.21;100390.53;5106724;28;20035;-61
2023/05/11 07:20:05;;;;;;;7.47;2.45;;;;;;;21.39;39.19;100405.72;5105994;28;20114;-62
2023/05/11 07:22:31;;;;;;;4.70;2.15;;;;;;;21.41;38.74;100399.00;5105513;28;20032;-61
2023/05/11 07:24:56;;;;;;;7.78;2.22;;;;;;;21.56;38.60;100402.44;5105265;28;20098;-61
2023/05/11 07:27:21;;;;;;;7.95;2.38;;;;;;;21.68;38.47;100405.44;5106627;28;20019;-62
2023/05/11 07:29:47;;;;;;;54.80;47.55;;;;;;;21.71;37.83;100389.50;5106553;28;20096;-61
2023/05/11 07:32:12;;;;;;;132.95;111.72;;;;;;;21.89;37.47;100408.03;5105725;28;20028;-60
2023/05/11 07:34:39;;;;;;;67.60;58.35;;;;;;;21.93;37.95;100403.88;5083416;28;20084;-59
2023/05/11 07:37:07;;;;;;;9.05;6.90;;;;;;;22.08;37.65;100408.13;5106073;28;20024;-62
2023/05/11 07:39:32;;;;;;;4.82;2.42;;;;;;;22.09;36.86;100392.56;5088422;28;20035;-61
2023/05/11 07:41:58;;;;;;;3.90;2.50;;;;;;;22.17;36.34;100398.69;5111329;28;20032;-62
2023/05/11 07:44:23;;;;;;;3.80;2.17;;;;;;;22.30;35.83;100398.69;5106969;28;20019;-61
2023/05/11 07:46:49;;;;;;;4.93;2.42;;;;;;;22.44;35.84;100409.66;5105472;28;20023;-62
2023/05/11 07:49:14;;;;;;;4.75;1.98;;;;;;;22.48;35.92;100403.56;5107008;28;20020;-62
2023/05/11 07:51:40;;;;;;;6.38;1.95;;;;;;;22.42;35.61;100401.66;5106713;28;20519;-61
2023/05/11 07:54:05;;;;;;;3.65;1.92;;;;;;;22.38;35.36;100415.94;5106255;28;20023;-62
2023/05/11 07:56:31;;;;;;;4.50;2.13;;;;;;;22.29;35.70;100401.63;5105927;28;20433;-62
2023/05/11 07:58:56;;;;;;;4.65;2.20;;;;;;;21.92;36.53;100361.19;5104354;28;20081;-62
2023/05/11 08:01:22;;;;;;;4.57;2.00;;;;;;;22.06;37.25;100409.38;5107183;28;20020;-61
2023/05/11 08:03:47;;;;;;;5.63;2.15;;;;;;;21.98;36.75;100387.69;5103858;28;20066;-62
2023/05/11 08:06:12;;;;;;;3.30;2.13;;;;;;;22.01;36.89;100404.53;5108980;28;20104;-62
2023/05/11 08:08:38;;;;;;;4.72;2.50;;;;;;;22.03;36.94;100401.59;5110249;28;20036;-62
2023/05/11 08:11:04;;;;;;;2.40;2.10;;;;;;;22.04;36.84;100406.00;5111187;28;20512;-61
2023/05/11 08:13:30;;;;;;;4.38;2.08;;;;;;;22.01;36.81;100392.75;5088875;28;20123;-61
2023/05/11 08:15:56;;;;;;;4.72;2.17;;;;;;;22.00;36.43;100405.59;5109991;28;20367;-62
2023/05/11 08:18:21;;;;;;;2.63;1.90;;;;;;;21.98;36.53;100396.75;5111377;28;20051;-61
2023/05/11 08:20:47;;;;;;;2.20;1.95;;;;;;;21.87;36.82;100388.31;5110917;28;20034;-61
2023/05/11 08:23:16;;;;;;;3.80;2.00;;;;;;;21.94;36.36;100403.66;5092932;28;20078;-61
2023/05/11 08:25:50;;;;;;;5.57;2.13;;;;;;;21.80;35.59;100366.41;5092165;28;20458;-62
2023/05/11 08:28:15;;;;;;;3.13;1.65;;;;;;;21.96;35.95;100403.47;5110039;28;20043;-61
2023/05/11 08:30:41;;;;;;;7.03;1.90;;;;;;;21.99;35.84;100395.69;5092921;28;20065;-61
2023/05/11 08:33:07;;;;;;;3.00;1.73;;;;;;;21.99;35.43;100403.06;5111431;28;20068;-61
2023/05/11 08:35:32;;;;;;;5.50;1.80;;;;;;;21.91;35.44;100395.88;5109275;28;20031;-62
2023/05/11 08:37:58;;;;;;;3.33;1.85;;;;;;;21.82;35.54;100379.88;5109971;28;20027;-61
2023/05/11 08:40:26;;;;;;;1.90;1.70;;;;;;;21.94;35.80;100394.63;5107115;28;20127;-62
2023/05/11 08:42:55;;;;;;;4.20;1.92;;;;;;;21.95;35.33;100393.56;5106138;28;20043;-62
2023/05/11 08:45:21;;;;;;;5.57;1.67;;;;;;;21.84;35.27;100369.59;5107241;28;20128;-62
2023/05/11 08:47:48;;;;;;;5.20;2.03;;;;;;;21.95;35.10;100367.09;5110619;28;20049;-63
2023/05/11 08:50:14;;;;;;;1.75;1.55;;;;;;;22.08;35.27;100369.88;5110702;28;20066;-62
2023/05/11 08:52:40;;;;;;;4.45;1.67;;;;;;;22.13;34.65;100352.84;5106011;28;20027;-62
2023/05/11 08:55:09;;;;;;;3.55;1.88;;;;;;;22.28;34.87;100367.16;5110512;28;20674;-62
2023/05/11 08:57:35;;;;;;;3.40;1.92;;;;;;;22.29;34.43;100377.03;5098708;28;20039;-62
2023/05/11 09:00:01;;;;;;;3.95;1.75;;;;;;;22.28;34.09;100359.78;5110293;28;20080;-62
2023/05/11 09:02:28;;;;;;;1.73;1.42;;;;;;;22.19;33.47;100324.69;5108379;28;20504;-62
2023/05/11 09:04:54;;;;;;;4.32;1.85;;;;;;;22.41;32.39;100367.19;5109889;28;20027;-62
2023/05/11 09:07:22;;;;;;;4.32;1.77;;;;;;;22.40;32.01;100345.53;5110304;27;20152;-62
2023/05/11 09:09:47;;;;;;;4.72;1.60;;;;;;;22.60;32.53;100354.59;5106584;28;20031;-62
2023/05/11 09:12:14;;;;;;;4.50;1.40;;;;;;;22.55;32.86;100325.16;5110601;28;20376;-62
2023/05/11 09:14:39;;;;;;;2.28;1.52;;;;;;;22.81;33.35;100344.25;5109201;28;20035;-61
2023/05/11 09:17:05;;;;;;;4.43;1.70;;;;;;;22.77;31.95;100344.88;5110261;28;20039;-62
2023/05/11 09:19:30;;;;;;;6.30;1.38;;;;;;;22.64;31.74;100340.28;5110674;28;20011;-62
2023/05/11 09:21:58;;;;;;;3.80;1.52;;;;;;;22.66;32.22;100360.03;5110450;28;20027;-63
2023/05/11 09:24:23;;;;;;;3.35;1.40;;;;;;;22.67;31.79;100337.13;5110421;28;20052;-62
2023/05/11 09:27:04;;;;;;;4.25;1.50;;;;;;;22.42;31.72;100317.75;5110434;28;20039;-62
2023/05/11 09:29:30;;;;;;;2.55;1.20;;;;;;;22.53;31.06;100351.84;5110652;28;20489;-62
2023/05/11 09:31:55;;;;;;;2.67;1.30;;;;;;;22.42;30.63;100344.25;5110215;28;20038;-62
2023/05/11 09:34:22;;;;;;;3.38;1.30;;;;;;;22.45;29.87;100346.56;5109144;28;20096;-62
2023/05/11 09:36:50;;;;;;;1.33;1.05;;;;;;;22.41;30.38;100323.44;5110168;28;20035;-62
2023/05/11 09:39:18;;;;;;;2.88;1.40;;;;;;;22.49;30.83;100339.66;5110622;27;20530;-62
2023/05/11 09:41:44;;;;;;;4.57;1.60;;;;;;;22.54;31.00;100337.16;5110087;28;20035;-63
2023/05/11 09:44:14;;;;;;;2.30;1.17;;;;;;;22.60;30.86;100340.91;5110121;28;20088;-62
2023/05/11 09:46:41;;;;;;;2.05;1.73;;;;;;;22.63;31.35;100327.66;5110245;28;20066;-62
2023/05/11 09:49:07;;;;;;;2.53;1.13;;;;;;;22.51;30.80;100309.38;5110201;28;20024;-68
2023/05/11 09:51:36;;;;;;;1.88;1.38;;;;;;;22.64;30.86;100333.97;5110164;28;20032;-62
2023/05/11 09:54:16;;;;;;;1.77;1.23;;;;;;;22.58;30.65;100313.78;5092088;28;20062;-61
2023/05/11 09:56:51;;;;;;;5.68;1.45;;;;;;;22.62;30.09;100327.84;5110056;28;20127;-62
2023/05/11 09:59:36;;;;;;;4.43;1.35;;;;;;;22.58;30.58;100319.25;5110352;28;20027;-62
2023/05/11 10:02:28;;;;;;;2.00;1.30;;;;;;;22.52;30.73;100327.44;5091304;28;20498;-63
2023/05/11 10:04:58;;;;;;;3.28;1.67;;;;;;;22.63;30.45;100332.28;5109689;28;20601;-61
2023/05/11 10:07:37;;;;;;;4.68;1.30;;;;;;;22.49;30.17;100297.75;5109751;28;20038;-62
2023/05/11 10:10:07;;;;;;;2.28;1.42;;;;;;;22.52;30.59;100320.09;5109353;28;20022;-62
2023/05/11 10:12:37;;;;;;;2.33;1.30;;;;;;;22.23;30.28;100276.78;5109250;28;20475;-62
2023/05/11 10:15:08;;;;;;;2.60;1.27;;;;;;;22.41;30.13;100311.66;5108855;28;20043;-62
2023/05/11 10:17:35;;;;;;;2.80;1.52;;;;;;;22.41;30.22;100320.72;5109062;28;20031;-61
2023/05/11 10:20:03;;;;;;;3.10;1.42;;;;;;;22.30;30.09;100296.72;5108621;28;20024;-62
2023/05/11 10:22:28;;;;;;;2.95;1.30;;;;;;;22.37;30.40;100311.22;5090982;28;20139;-62
2023/05/11 10:24:58;;;;;;;3.17;1.27;;;;;;;22.44;30.61;100301.13;5090308;28;20088;-62
2023/05/11 10:27:24;;;;;;;2.78;1.30;;;;;;;22.53;30.98;100305.38;5108317;28;20035;-62
2023/05/11 10:29:50;;;;;;;3.13;1.20;;;;;;;22.56;29.51;100295.88;5091011;28;20028;-62
2023/05/11 10:32:19;;;;;;;3.47;1.60;;;;;;;22.52;29.88;100284.56;5109415;28;20036;-63
2023/05/11 10:34:46;;;;;;;2.90;1.80;;;;;;;22.57;30.61;100282.00;5109127;28;20027;-62
2023/05/11 10:37:13;;;;;;;1.50;1.40;;;;;;;22.66;30.33;100286.22;5109161;28;20038;-62
2023/05/11 10:39:40;;;;;;;2.05;1.50;;;;;;;22.67;30.06;100292.53;5107812;28;20050;-62
2023/05/11 10:42:38;;;;;;;4.85;1.10;;;;;;;22.72;30.42;100281.78;5109483;28;20535;-62
2023/05/11 10:45:30;;;;;;;1.80;1.52;;;;;;;22.59;30.49;100271.72;5062867;28;20043;-68
2023/05/11 10:48:02;;;;;;;3.55;1.73;;;;;;;22.69;30.48;100283.06;5107370;28;20046;-68
2023/05/11 10:50:52;;;;;;;4.32;1.80;;;;;;;22.66;30.76;100274.44;5108991;28;20024;-68
2023/05/11 10:53:18;;;;;;;2.58;1.50;;;;;;;22.61;31.59;100277.81;5108943;28;20038;-68
2023/05/11 10:56:01;;;;;;;1.75;1.38;;;;;;;22.60;31.40;100286.22;5108760;28;20019;-68
2023/05/11 10:58:36;;;;;;;2.63;1.30;;;;;;;22.61;31.18;100266.03;5108859;28;20031;-68
2023/05/11 11:01:26;;;;;;;3.25;1.38;;;;;;;22.58;30.94;100274.66;5108502;28;20104;-68
2023/05/11 11:04:01;;;;;;;3.15;1.30;;;;;;;22.60;31.11;100276.13;5108743;28;20027;-68
2023/05/11 11:06:28;;;;;;;4.07;1.80;;;;;;;22.68;31.16;100269.59;5108673;28;20019;-68
2023/05/11 11:09:03;;;;;;;5.55;1.67;;;;;;;22.72;31.01;100266.22;5108708;28;20031;-69
2023/05/11 11:11:45;;;;;;;2.13;1.67;;;;;;;22.79;30.97;100267.03;5108774;28;20102;-68
2023/05/11 11:14:15;;;;;;;3.30;1.52;;;;;;;22.84;31.42;100261.78;5109106;28;20027;-68
2023/05/11 11:17:00;;;;;;;2.20;1.30;;;;;;;22.85;30.90;100257.97;5108635;28;20047;-68
2023/05/11 11:19:29;;;;;;;2.22;1.60;;;;;;;22.93;30.69;100255.03;5108547;28;20036;-68
2023/05/11 11:22:01;;;;;;;3.33;1.70;;;;;;;22.89;30.88;100256.47;5108317;28;20496;-68
2023/05/11 11:24:45;;;;;;;1.63;1.45;;;;;;;22.89;31.08;100253.75;5108396;28;20056;-61
2023/05/11 11:27:11;;;;;;;2.92;1.60;;;;;;;22.90;30.87;100236.31;5108640;28;20488;-61